createdAt,value
2022-08-05T00:04:56.063Z,47.7699
2022-08-05T00:09:57.277Z,48.7413
2022-08-05T00:14:59.759Z,49.05168
2022-08-05T00:20:57.425Z,48.88973
2022-08-05T00:25:58.317Z,49.33522
2022-08-05T00:31:04.212Z,48.99812
2022-08-05T00:36:16.400Z,49.38891
2022-08-05T00:42:31.607Z,48.93732
2022-08-05T00:47:56.495Z,49.12551
2022-08-05T00:52:58.544Z,49.75032
2022-08-05T00:57:59.475Z,49.66508
2022-08-05T01:03:00.396Z,49.06635
2022-08-05T01:08:40.697Z,47.73257
2022-08-05T01:13:57.720Z,46.82447
2022-08-05T01:19:00.819Z,47.13527
2022-08-05T01:24:02.170Z,47.5271
2022-08-05T01:29:14.324Z,47.24367
2022-08-05T01:34:15.221Z,46.50176
2022-08-05T01:39:45.827Z,47.09105
2022-08-05T01:44:54.145Z,47.42765
2022-08-05T01:50:02.038Z,47.05067
2022-08-05T01:55:04.523Z,48.0543
2022-08-05T02:00:06.462Z,46.6915
2022-08-05T02:05:13.120Z,47.81578
2022-08-05T02:10:17.410Z,47.669
2022-08-05T02:15:19.728Z,47.88629
2022-08-05T02:20:20.948Z,48.719
2022-08-05T02:25:23.288Z,48.74957
2022-08-05T02:30:26.788Z,48.70781
2022-08-05T02:35:33.329Z,48.9137
2022-08-05T02:40:38.895Z,48.8133
2022-08-05T02:45:52.555Z,48.47792
2022-08-05T02:50:54.950Z,48.08237
2022-08-05T02:56:00.279Z,48.29253
2022-08-05T03:01:03.016Z,49.23463
2022-08-05T03:06:54.363Z,48.65678
2022-08-05T03:11:59.913Z,48.8047
2022-08-05T03:17:07.364Z,48.88901
2022-08-05T03:22:16.780Z,48.67417
2022-08-05T03:27:19.835Z,49.01561
2022-08-05T03:32:20.948Z,49.03857
2022-08-05T03:37:31.784Z,49.46406
2022-08-05T03:42:51.996Z,49.48929
2022-08-05T03:47:56.969Z,50.07681
2022-08-05T03:55:51.687Z,49.98966
2022-08-05T04:01:07.579Z,48.69816
2022-08-05T04:06:08.891Z,48.80393
2022-08-05T04:11:09.993Z,48.4516
2022-08-05T04:16:11.087Z,48.01449
2022-08-05T04:22:05.026Z,47.71342
2022-08-05T04:27:11.521Z,48.41377
2022-08-05T04:32:12.551Z,49.60832
2022-08-05T04:37:13.598Z,49.56352
2022-08-05T04:42:14.482Z,49.72242
2022-08-05T04:47:18.644Z,48.24334
2022-08-05T04:52:21.283Z,45.86025
2022-08-05T04:57:22.589Z,44.82956
2022-08-05T05:02:37.630Z,45.93199
2022-08-05T05:07:45.628Z,46.17875
2022-08-05T05:12:53.667Z,46.49376
2022-08-05T05:17:56.566Z,45.75442
2022-08-05T05:22:58.511Z,46.05495
2022-08-05T05:27:59.467Z,45.98842
2022-08-05T05:38:02.110Z,44.49075
2022-08-05T05:43:03.653Z,43.0658
2022-08-05T05:48:06.626Z,41.34504
2022-08-05T05:53:22.341Z,41.1574
2022-08-05T05:58:31.529Z,42.88873
2022-08-05T06:03:53.916Z,41.59138
2022-08-05T06:09:03.214Z,38.26483
2022-08-05T06:14:05.149Z,36.69985
2022-08-05T06:19:07.366Z,37.57502
2022-08-05T06:30:04.538Z,34.53584
2022-08-05T06:55:46.067Z,35.65233
2022-08-05T07:00:47.263Z,35.75548
2022-08-05T07:05:48.486Z,35.82242
2022-08-05T07:10:52.758Z,35.71319
2022-08-05T07:16:01.806Z,34.98312
2022-08-05T07:21:05.779Z,34.35193
2022-08-05T07:26:06.734Z,33.35599
2022-08-05T07:31:07.640Z,31.312
2022-08-05T07:36:20.676Z,32.00415
2022-08-05T07:42:14.353Z,32.09013
2022-08-05T07:47:16.320Z,32.4026
2022-08-05T07:52:17.203Z,32.78083
2022-08-05T07:57:42.102Z,32.91353
2022-08-05T08:03:15.269Z,33.92639
2022-08-05T08:08:16.866Z,34.05009
2022-08-05T08:13:22.173Z,32.84751
2022-08-05T08:18:30.459Z,32.31733
2022-08-05T08:24:01.969Z,33.21422
2022-08-05T08:29:09.706Z,35.01237
2022-08-05T08:34:33.281Z,35.15089
2022-08-05T08:39:37.588Z,32.6812
2022-08-05T08:45:24.310Z,30.14697
2022-08-05T08:50:52.800Z,30.63612
2022-08-05T08:56:26.953Z,29.64843
2022-08-05T09:01:28.535Z,30.16578
2022-08-05T09:06:30.649Z,31.99742
2022-08-05T09:11:52.169Z,31.08665
2022-08-05T09:16:54.876Z,28.27721
2022-08-05T09:22:22.532Z,27.09855
2022-08-05T09:28:03.900Z,27.82945
2022-08-05T09:33:07.207Z,26.59439
2022-08-05T09:38:12.984Z,25.22697
2022-08-05T09:43:18.807Z,23.5996
2022-08-05T09:48:21.079Z,24.54384
2022-08-05T09:53:25.905Z,25.40028
2022-08-05T09:58:31.866Z,26.3579
2022-08-05T10:03:56.874Z,28.78544
2022-08-05T10:09:01.168Z,28.02682
2022-08-05T10:14:04.007Z,30.56894
2022-08-05T10:19:11.801Z,29.53259
2022-08-05T10:24:12.906Z,31.77669
2022-08-05T10:29:13.835Z,28.63287
2022-08-05T10:34:25.926Z,28.20324
2022-08-05T10:39:59.332Z,24.37245
2022-08-05T10:45:20.843Z,26.00856
2022-08-05T10:50:36.360Z,26.81602
2022-08-05T10:56:03.794Z,25.71568
2022-08-05T11:01:28.044Z,25.39539
2022-08-05T11:06:31.126Z,28.53668
2022-08-05T11:11:33.014Z,29.08957
2022-08-05T11:16:57.738Z,30.10864
2022-08-05T11:22:00.358Z,27.97673
2022-08-05T11:27:01.549Z,26.91922
2022-08-05T11:32:02.499Z,25.43454
2022-08-05T11:37:06.289Z,24.84294
2022-08-05T11:44:00.728Z,24.59781
2022-08-05T11:49:10.078Z,24.0487
2022-08-05T11:54:11.222Z,24.89293
2022-08-05T11:59:15.023Z,25.57384
2022-08-05T12:04:22.344Z,25.05135
2022-08-05T12:09:23.286Z,25.27637
2022-08-05T12:14:53.621Z,26.22379
2022-08-05T12:20:26.548Z,25.49303
2022-08-05T12:25:31.758Z,24.75844
2022-08-05T12:30:32.670Z,24.79806
2022-08-05T12:35:39.483Z,25.69047
2022-08-05T12:40:44.121Z,26.4392
2022-08-05T12:56:35.231Z,25.72798
2022-08-05T13:02:01.011Z,25.89254
2022-08-05T13:07:10.378Z,26.28698
2022-08-05T13:12:16.987Z,26.44077
2022-08-05T13:17:20.550Z,26.60918
2022-08-05T13:22:32.367Z,26.20044
2022-08-05T13:27:36.322Z,27.04559
2022-08-05T13:32:42.156Z,27.24507
2022-08-05T13:37:55.475Z,26.94348
2022-08-05T13:42:57.316Z,27.11198
2022-08-05T13:48:09.742Z,27.55253
2022-08-05T13:53:58.119Z,27.33708
2022-08-05T13:59:00.054Z,26.75941
2022-08-05T14:04:07.273Z,25.67406
2022-08-05T14:09:08.665Z,26.51798
2022-08-05T14:14:10.664Z,26.50273
2022-08-05T14:19:13.193Z,25.71521
2022-08-05T14:24:19.396Z,26.24033
2022-08-05T14:29:20.608Z,25.98502
2022-08-05T14:34:23.615Z,25.04866
2022-08-05T14:39:24.860Z,24.74707
2022-08-05T14:44:28.516Z,24.61435
2022-08-05T14:49:56.297Z,24.72172
2022-08-05T14:55:01.195Z,24.47896
2022-08-05T15:00:02.148Z,24.13494
2022-08-05T15:05:08.632Z,23.76701
2022-08-05T15:10:14.679Z,24.88354
2022-08-05T15:15:15.785Z,24.70542
2022-08-05T15:20:19.118Z,24.79062
2022-08-05T15:25:23.575Z,24.41979
2022-08-05T15:30:43.372Z,24.76214
2022-08-05T15:35:45.107Z,24.60165
2022-08-05T15:41:04.268Z,23.38719
2022-08-05T15:46:24.936Z,22.68486
2022-08-05T15:52:04.022Z,22.1218
2022-08-05T15:57:15.064Z,20.72692
2022-08-05T16:02:19.790Z,20.6866
2022-08-05T16:07:29.520Z,21.70728
2022-08-05T16:12:30.792Z,20.44743
2022-08-05T16:17:32.050Z,19.22361
2022-08-05T16:22:34.265Z,18.98278
2022-08-05T16:28:00.388Z,18.16486
2022-08-05T16:33:06.191Z,16.6785
2022-08-05T16:38:18.834Z,15.26492
2022-08-05T16:43:25.828Z,13.93689
2022-08-05T16:48:33.517Z,12.45534
2022-08-05T16:54:04.956Z,14.32628
2022-08-05T16:59:14.678Z,14.16504
2022-08-05T17:04:18.648Z,12.83502
2022-08-05T17:09:19.822Z,12.98486
2022-08-05T17:14:34.430Z,10.37551
2022-08-05T17:19:39.022Z,9.40657
2022-08-05T17:24:45.439Z,8.3669
2022-08-05T17:30:00.654Z,6.91268
2022-08-05T17:35:03.880Z,5.57616
2022-08-05T17:40:04.873Z,4.7989
2022-08-05T17:45:20.826Z,4.6937
2022-08-05T17:50:28.061Z,3.89828
2022-08-05T17:55:37.949Z,1.83756
2022-08-05T18:00:44.423Z,1.5559
2022-08-05T18:05:52.941Z,-0.48146
2022-08-05T18:10:54.682Z,-2.09213
2022-08-05T18:15:55.600Z,-1.56117
2022-08-05T18:20:56.527Z,-1.29168
2022-08-05T18:25:59.592Z,-2.80371
2022-08-05T18:31:00.656Z,-3.98092
2022-08-05T18:36:04.314Z,-4.34696
2022-08-05T18:41:53.739Z,-4.68671
2022-08-05T18:46:59.667Z,-4.80768
2022-08-05T18:52:05.024Z,-5.43137
2022-08-05T18:57:09.677Z,-6.68018
2022-08-05T19:02:27.949Z,-7.74508
2022-08-05T19:07:29.918Z,-7.73837
2022-08-05T19:12:46.703Z,-8.25608
2022-08-05T19:18:08.596Z,-8.02137
2022-08-05T19:24:03.271Z,-10.23407
2022-08-05T19:29:09.440Z,-12.37533
2022-08-05T19:34:10.355Z,-11.6611
2022-08-05T19:39:11.332Z,-11.93801
2022-08-05T19:44:13.596Z,-13.89824
2022-08-05T19:49:17.215Z,-14.79646
2022-08-05T19:54:27.237Z,-14.95843
2022-08-05T20:00:01.281Z,-15.37941
2022-08-05T20:05:04.866Z,-14.59998
2022-08-05T20:10:22.388Z,-14.54647
2022-08-05T20:15:52.503Z,-14.97327
2022-08-05T20:20:57.666Z,-15.72642
2022-08-05T20:26:00.937Z,-15.81237
2022-08-05T20:31:02.418Z,-16.7175
2022-08-05T20:36:03.344Z,-18.45474
2022-08-05T20:41:04.652Z,-19.44174
2022-08-05T20:51:09.839Z,-21.89286
2022-08-05T20:56:11.111Z,-22.49507
2022-08-05T21:06:27.581Z,-24.43884
2022-08-05T21:12:07.139Z,-25.75216
2022-08-05T21:17:12.085Z,-25.3425
2022-08-05T21:22:13.344Z,-25.91759
2022-08-05T21:37:16.274Z,-25.60045
2022-08-05T21:42:30.635Z,-26.14344
2022-08-05T21:47:56.077Z,-26.85979
2022-08-05T21:53:04.484Z,-26.51068
2022-08-05T22:03:06.391Z,-28.01916
2022-08-05T22:08:22.602Z,-27.64968
2022-08-05T22:14:18.276Z,-27.29647
2022-08-05T22:20:01.522Z,-28.62651
2022-08-05T22:25:17.825Z,-30.12307
2022-08-05T22:35:25.413Z,-30.72637
2022-08-05T22:40:32.194Z,-31.48519
2022-08-05T22:45:34.078Z,-31.59191
2022-08-05T22:50:38.218Z,-31.59209
2022-08-05T22:55:57.112Z,-31.27474
2022-08-05T23:00:58.624Z,-31.90201
2022-08-05T23:05:59.568Z,-31.51699
2022-08-05T23:11:02.187Z,-31.99715
2022-08-05T23:16:03.081Z,-32.12726
2022-08-05T23:21:04.026Z,-32.88876
2022-08-05T23:26:04.968Z,-32.3362
2022-08-05T23:31:17.524Z,-32.47412
2022-08-05T23:36:18.940Z,-34.22268
2022-08-05T23:41:20.218Z,-34.80466
2022-08-05T23:56:27.340Z,-35.33663
